Time;durP1;ratioP1;P1;durP2;ratioP2;P2;SDS_P1;SDS_P2;PMS_P1;PMS_P2;Temp;Humidity;BMP_temperature;BMP_pressure;BME280_temperature;BME280_humidity;BME280_pressure;Samples;Min_cycle;Max_cycle;Signal;HPM_P1;HPM_P2
2023/12/02 00:00:27;;;;;;;3.50;3.30;;;19.50;38.80;;;;;;5040357;28;21241;-65
2023/12/02 00:02:53;;;;;;;3.73;3.53;;;19.50;38.80;;;;;;5049978;28;20708;-65
2023/12/02 00:05:18;;;;;;;3.93;3.73;;;19.50;38.80;;;;;;5078131;28;20236;-65
2023/12/02 00:07:44;;;;;;;3.47;3.27;;;19.50;38.80;;;;;;5055525;28;20284;-65
2023/12/02 00:10:11;;;;;;;3.50;3.30;;;19.50;38.80;;;;;;5070794;28;20694;-65
2023/12/02 00:12:37;;;;;;;3.83;3.63;;;19.50;38.80;;;;;;5063588;28;20223;-65
2023/12/02 00:15:03;;;;;;;4.17;3.97;;;19.50;38.80;;;;;;5078158;28;20457;-65
2023/12/02 00:17:29;;;;;;;3.80;3.50;;;19.50;38.80;;;;;;5072958;28;20308;-65
2023/12/02 00:19:54;;;;;;;3.63;3.43;;;19.50;38.80;;;;;;5077032;28;20972;-65
2023/12/02 00:22:20;;;;;;;3.53;3.33;;;19.50;38.80;;;;;;5074577;28;20227;-65
2023/12/02 00:24:45;;;;;;;3.57;3.37;;;19.50;38.80;;;;;;5076498;28;20212;-66
2023/12/02 00:27:11;;;;;;;3.50;3.30;;;19.50;38.80;;;;;;5074192;28;20244;-65
2023/12/02 00:29:37;;;;;;;3.43;3.23;;;19.50;38.80;;;;;;5068997;28;20673;-65
2023/12/02 00:32:02;;;;;;;4.00;3.80;;;19.50;38.80;;;;;;5071318;28;20232;-65
2023/12/02 00:34:28;;;;;;;3.47;3.27;;;19.50;38.80;;;;;;5075194;28;20269;-65
2023/12/02 00:36:54;;;;;;;3.87;3.57;;;19.50;38.80;;;;;;5066882;28;20229;-65
2023/12/02 00:39:19;;;;;;;3.80;3.53;;;19.50;38.80;;;;;;5066669;28;20568;-65
2023/12/02 00:41:45;;;;;;;3.77;3.57;;;19.50;38.80;;;;;;5065086;28;20236;-65
2023/12/02 00:44:11;;;;;;;3.63;3.43;;;19.50;38.80;;;;;;5067343;28;20239;-65
2023/12/02 00:46:36;;;;;;;3.33;3.13;;;19.50;38.80;;;;;;5071741;28;20220;-65
2023/12/02 00:49:02;;;;;;;4.13;3.93;;;19.50;38.80;;;;;;5072674;28;20637;-64
2023/12/02 00:51:28;;;;;;;3.53;3.33;;;19.50;38.80;;;;;;5063771;28;20247;-65
2023/12/02 00:53:54;;;;;;;3.47;3.27;;;19.50;38.80;;;;;;5064332;28;20220;-65
2023/12/02 00:56:19;;;;;;;3.43;3.23;;;19.50;38.80;;;;;;5069307;28;20514;-65
2023/12/02 00:58:45;;;;;;;3.40;3.20;;;19.50;38.80;;;;;;5070696;28;20232;-65
2023/12/02 01:01:11;;;;;;;3.23;3.03;;;19.50;38.80;;;;;;5071453;28;20228;-65
2023/12/02 01:03:36;;;;;;;3.37;3.17;;;19.40;38.70;;;;;;5062677;28;20347;-65
2023/12/02 01:06:02;;;;;;;3.63;3.43;;;19.50;38.80;;;;;;5049580;28;20837;-65
2023/12/02 01:08:28;;;;;;;3.57;3.37;;;19.50;38.80;;;;;;5048646;28;20684;-65
2023/12/02 01:10:53;;;;;;;3.60;3.40;;;19.50;38.80;;;;;;5052271;28;20225;-64
2023/12/02 01:13:19;;;;;;;3.60;3.40;;;19.50;38.80;;;;;;5054748;28;20217;-65
2023/12/02 01:15:44;;;;;;;3.60;3.40;;;19.50;38.80;;;;;;5049536;28;20230;-65
2023/12/02 01:18:10;;;;;;;3.40;3.20;;;19.50;38.80;;;;;;5050474;28;20389;-65
2023/12/02 01:20:36;;;;;;;3.50;3.30;;;19.50;38.80;;;;;;5052574;28;20217;-65
2023/12/02 01:23:02;;;;;;;3.60;3.40;;;19.50;38.80;;;;;;5052768;28;20735;-65
2023/12/02 01:25:27;;;;;;;3.40;3.20;;;19.40;38.70;;;;;;5050385;28;20433;-65
2023/12/02 01:27:53;;;;;;;3.30;3.10;;;19.40;38.70;;;;;;5051821;28;20744;-63
2023/12/02 01:30:19;;;;;;;3.53;3.33;;;19.40;38.70;;;;;;5056626;28;20253;-65
2023/12/02 01:32:44;;;;;;;5.10;3.40;;;19.50;38.80;;;;;;5052183;28;20277;-65
2023/12/02 01:35:10;;;;;;;5.47;3.57;;;19.40;38.70;;;;;;5051957;28;20225;-65
2023/12/02 01:37:35;;;;;;;3.77;3.57;;;19.40;38.70;;;;;;5052776;28;20313;-65
2023/12/02 01:40:01;;;;;;;3.57;3.37;;;19.40;38.70;;;;;;5054377;28;20220;-65
2023/12/02 01:42:27;;;;;;;3.87;3.67;;;19.50;38.80;;;;;;5050409;28;20225;-65
2023/12/02 01:44:52;;;;;;;4.00;3.80;;;19.40;38.70;;;;;;5054586;28;20629;-65
2023/12/02 01:47:18;;;;;;;3.70;3.50;;;19.50;38.80;;;;;;5053921;28;20575;-65
2023/12/02 01:49:45;;;;;;;3.60;3.40;;;19.40;38.70;;;;;;5053735;28;20281;-65
2023/12/02 01:52:11;;;;;;;3.97;3.77;;;19.40;38.70;;;;;;5048179;28;20921;-65
2023/12/02 01:54:37;;;;;;;3.57;3.37;;;19.40;38.70;;;;;;5058318;28;20471;-65
2023/12/02 01:57:03;;;;;;;4.07;3.87;;;19.50;38.80;;;;;;5055972;28;20433;-65
2023/12/02 01:59:30;;;;;;;3.70;3.50;;;19.40;38.70;;;;;;5055345;28;20225;-64
2023/12/02 02:01:56;;;;;;;3.20;3.00;;;19.50;38.80;;;;;;5050674;28;20436;-64
2023/12/02 02:04:23;;;;;;;3.40;3.20;;;19.50;39.50;;;;;;5056215;28;20808;-70
2023/12/02 02:06:49;;;;;;;3.67;3.47;;;19.40;38.70;;;;;;5049628;28;20598;-68
2023/12/02 02:09:14;;;;;;;3.73;3.43;;;19.50;38.80;;;;;;5052711;28;20494;-67
2023/12/02 02:11:40;;;;;;;3.57;3.37;;;19.50;38.80;;;;;;5052816;28;20433;-67
2023/12/02 02:14:06;;;;;;;3.43;3.23;;;19.40;38.70;;;;;;5050254;28;20244;-66
2023/12/02 02:16:32;;;;;;;4.10;3.90;;;19.40;38.70;;;;;;5051785;28;20461;-66
2023/12/02 02:18:57;;;;;;;3.90;3.70;;;19.40;38.70;;;;;;5050488;28;20225;-66
2023/12/02 02:21:23;;;;;;;3.73;3.53;;;19.50;38.80;;;;;;5053722;28;20267;-66
2023/12/02 02:23:49;;;;;;;3.70;3.50;;;19.40;38.70;;;;;;5053661;28;20233;-67
2023/12/02 02:26:14;;;;;;;3.77;3.57;;;19.40;38.70;;;;;;5052753;28;20229;-66
2023/12/02 02:28:40;;;;;;;3.40;3.20;;;19.40;38.70;;;;;;5049939;28;20279;-66
2023/12/02 02:31:05;;;;;;;4.00;3.77;;;19.40;38.70;;;;;;5053355;28;20234;-66
2023/12/02 02:33:34;;;;;;;5.00;3.87;;;19.50;38.80;;;;;;5048885;28;20276;-66
2023/12/02 02:36:00;;;;;;;3.57;3.37;;;19.40;38.70;;;;;;5051468;28;20681;-66
2023/12/02 02:38:25;;;;;;;4.10;3.90;;;19.40;38.70;;;;;;5053406;28;20444;-66
2023/12/02 02:40:51;;;;;;;3.50;3.30;;;19.40;38.70;;;;;;5052528;28;20269;-66
2023/12/02 02:43:16;;;;;;;3.40;3.20;;;19.50;38.80;;;;;;5053843;28;20975;-65
2023/12/02 02:45:42;;;;;;;3.00;2.90;;;19.40;38.70;;;;;;5052325;28;20233;-65
2023/12/02 02:48:08;;;;;;;3.40;3.20;;;19.40;38.70;;;;;;5052078;28;20768;-66
2023/12/02 02:50:34;;;;;;;3.40;3.20;;;19.40;38.70;;;;;;5051930;28;21240;-66
2023/12/02 02:53:00;;;;;;;3.43;3.23;;;19.40;38.70;;;;;;5049351;28;20448;-65
2023/12/02 02:55:26;;;;;;;3.60;3.40;;;19.40;38.70;;;;;;5050367;28;20234;-65
2023/12/02 02:57:51;;;;;;;3.83;3.63;;;19.40;38.70;;;;;;5065786;28;20304;-66
2023/12/02 03:00:18;;;;;;;3.47;3.20;;;19.40;38.70;;;;;;5052583;28;20226;-65
2023/12/02 03:02:44;;;;;;;3.53;3.33;;;19.40;38.70;;;;;;5046699;28;20237;-65
2023/12/02 03:05:10;;;;;;;4.03;3.83;;;19.40;38.70;;;;;;5071829;28;21034;-65
2023/12/02 03:07:35;;;;;;;3.33;3.13;;;19.40;38.70;;;;;;5053057;28;20640;-65
2023/12/02 03:10:01;;;;;;;3.87;3.57;;;19.40;38.70;;;;;;5054746;28;20225;-65
2023/12/02 03:12:27;;;;;;;3.20;3.00;;;19.40;38.70;;;;;;5055470;28;20319;-65
2023/12/02 03:14:53;;;;;;;3.50;3.30;;;19.40;38.70;;;;;;5077267;28;20259;-63
2023/12/02 03:17:19;;;;;;;3.70;3.50;;;19.40;38.70;;;;;;5040615;28;20277;-65
2023/12/02 03:19:46;;;;;;;3.63;3.43;;;19.40;38.70;;;;;;5071494;28;20449;-65
2023/12/02 03:22:11;;;;;;;3.53;3.33;;;19.40;38.70;;;;;;5066859;28;20226;-65
2023/12/02 03:24:37;;;;;;;3.27;3.10;;;19.40;38.70;;;;;;5066827;28;20756;-65
2023/12/02 03:27:03;;;;;;;3.17;2.97;;;19.40;38.70;;;;;;5058069;28;20249;-65
2023/12/02 03:29:29;;;;;;;3.60;3.40;;;19.40;38.70;;;;;;5076471;28;20216;-65
2023/12/02 03:31:55;;;;;;;3.47;3.27;;;19.40;38.70;;;;;;5071280;28;20830;-65
2023/12/02 03:34:20;;;;;;;3.20;3.00;;;19.40;38.70;;;;;;5060327;28;20449;-65
2023/12/02 03:36:47;;;;;;;3.30;3.10;;;19.40;38.70;;;;;;5059164;28;20217;-64
2023/12/02 03:39:12;;;;;;;3.50;3.30;;;19.40;38.70;;;;;;5070764;28;20284;-65
2023/12/02 03:41:40;;;;;;;3.17;2.97;;;19.40;38.80;;;;;;5065710;28;21417;-65
2023/12/02 03:44:06;;;;;;;3.37;3.17;;;19.40;38.70;;;;;;5068146;28;20290;-64
2023/12/02 03:46:31;;;;;;;3.20;3.00;;;19.40;38.70;;;;;;5042571;28;20463;-65
2023/12/02 03:48:57;;;;;;;3.50;3.30;;;19.40;38.70;;;;;;5067306;28;20239;-65
2023/12/02 03:51:23;;;;;;;3.50;3.30;;;19.40;38.70;;;;;;5046821;28;20216;-65
2023/12/02 03:53:49;;;;;;;3.50;3.30;;;19.40;38.70;;;;;;5071361;28;20224;-64
2023/12/02 03:56:14;;;;;;;3.23;3.03;;;19.40;38.70;;;;;;5079152;28;20257;-65
2023/12/02 03:58:40;;;;;;;4.07;3.87;;;19.40;38.70;;;;;;5070927;28;20678;-64
2023/12/02 04:01:06;;;;;;;3.23;3.03;;;19.40;38.70;;;;;;5063967;28;20752;-64
2023/12/02 04:03:33;;;;;;;3.80;3.60;;;19.40;38.70;;;;;;5063919;28;20693;-65
2023/12/02 04:05:58;;;;;;;3.83;3.63;;;19.40;38.70;;;;;;5047644;28;20260;-64
2023/12/02 04:08:24;;;;;;;3.20;3.00;;;19.40;38.70;;;;;;5050495;28;20513;-64
2023/12/02 04:10:50;;;;;;;3.43;3.23;;;19.40;38.70;;;;;;5048963;28;20321;-66
2023/12/02 04:13:16;;;;;;;3.30;3.10;;;19.40;38.70;;;;;;5049204;28;20235;-65
2023/12/02 04:15:42;;;;;;;3.27;3.07;;;19.40;38.70;;;;;;5046645;28;20546;-64
2023/12/02 04:18:07;;;;;;;17.13;4.27;;;19.40;38.70;;;;;;5035618;28;21355;-64
2023/12/02 04:20:33;;;;;;;3.30;3.10;;;19.40;38.70;;;;;;5041790;28;20517;-64
2023/12/02 04:22:58;;;;;;;3.20;3.00;;;19.40;38.70;;;;;;5041505;28;20255;-64
2023/12/02 04:25:24;;;;;;;3.27;3.07;;;19.40;38.70;;;;;;5052107;28;20269;-64
2023/12/02 04:27:50;;;;;;;3.07;2.87;;;19.40;38.70;;;;;;5052695;28;20675;-63
2023/12/02 04:30:16;;;;;;;3.30;3.10;;;19.40;38.70;;;;;;5055050;28;20680;-64
2023/12/02 04:32:42;;;;;;;7.73;3.23;;;19.40;38.70;;;;;;5050954;28;20927;-64
2023/12/02 04:35:08;;;;;;;2.63;2.53;;;19.40;38.70;;;;;;5054716;28;20454;-64
2023/12/02 04:37:34;;;;;;;3.17;3.00;;;19.40;38.70;;;;;;5051250;28;20319;-64
2023/12/02 04:40:00;;;;;;;3.07;2.87;;;19.40;38.70;;;;;;5054091;28;20905;-65
2023/12/02 04:42:26;;;;;;;3.53;3.33;;;19.40;38.70;;;;;;5052037;28;20231;-63
2023/12/02 04:44:52;;;;;;;3.13;2.83;;;19.40;38.70;;;;;;5055497;28;20440;-63
2023/12/02 04:47:17;;;;;;;3.03;2.90;;;19.40;38.70;;;;;;5050030;28;20221;-63
2023/12/02 04:49:43;;;;;;;3.47;3.27;;;19.40;38.70;;;;;;5049163;28;20244;-64
2023/12/02 04:52:08;;;;;;;3.30;3.10;;;19.40;38.70;;;;;;5051852;28;20232;-64
2023/12/02 04:54:34;;;;;;;3.30;3.10;;;19.40;38.70;;;;;;5054751;28;20320;-63
2023/12/02 04:57:00;;;;;;;2.50;2.40;;;19.40;38.70;;;;;;5049056;28;20642;-64
2023/12/02 04:59:26;;;;;;;2.73;2.63;;;19.40;38.70;;;;;;5052742;28;20217;-63
2023/12/02 05:01:52;;;;;;;3.10;2.90;;;19.40;38.70;;;;;;5053324;28;20516;-64
2023/12/02 05:04:18;;;;;;;2.80;2.70;;;19.40;38.70;;;;;;5064359;28;20245;-63
2023/12/02 05:06:44;;;;;;;3.33;3.13;;;19.40;38.70;;;;;;5071067;28;20473;-63
2023/12/02 05:09:10;;;;;;;2.97;2.77;;;19.40;38.70;;;;;;5054925;28;20457;-64
2023/12/02 05:11:35;;;;;;;3.03;2.90;;;19.50;38.80;;;;;;5069196;28;20302;-63
2023/12/02 05:14:01;;;;;;;2.63;2.53;;;19.40;38.70;;;;;;5054779;28;20779;-63
2023/12/02 05:16:27;;;;;;;3.13;2.93;;;19.50;38.80;;;;;;5069497;28;20232;-63
2023/12/02 05:18:52;;;;;;;2.53;2.43;;;19.40;38.70;;;;;;5072842;28;20228;-62
2023/12/02 05:21:18;;;;;;;3.30;3.10;;;19.50;38.70;;;;;;5075894;28;20227;-63
2023/12/02 05:23:44;;;;;;;2.77;2.67;;;19.50;38.70;;;;;;5074271;28;20233;-63
2023/12/02 05:26:11;;;;;;;2.57;2.47;;;19.50;38.70;;;;;;5064303;28;20453;-63
2023/12/02 05:28:38;;;;;;;3.43;3.20;;;19.50;39.50;;;;;;5059238;28;20465;-63
2023/12/02 05:31:04;;;;;;;2.90;2.70;;;19.50;38.60;;;;;;5065025;28;20532;-64
2023/12/02 05:33:29;;;;;;;3.10;2.90;;;19.50;38.60;;;;;;5075782;28;20454;-67
2023/12/02 05:35:55;;;;;;;2.63;2.53;;;19.50;38.60;;;;;;5071222;28;20221;-69
2023/12/02 05:38:20;;;;;;;2.10;2.00;;;19.50;38.60;;;;;;5072122;28;20216;-66
2023/12/02 05:40:46;;;;;;;3.27;3.07;;;19.50;38.50;;;;;;5059711;28;20224;-66
2023/12/02 05:43:12;;;;;;;3.40;3.20;;;19.50;38.50;;;;;;5076257;28;20900;-65
2023/12/02 05:45:38;;;;;;;2.97;2.80;;;19.50;38.40;;;;;;5074547;28;20225;-65
2023/12/02 05:48:05;;;;;;;2.87;2.67;;;19.50;38.40;;;;;;5070282;28;20327;-65
2023/12/02 05:50:31;;;;;;;2.23;2.13;;;19.50;38.30;;;;;;5072353;28;20711;-65
2023/12/02 05:52:57;;;;;;;2.77;2.67;;;19.60;38.40;;;;;;5057653;28;20424;-66
2023/12/02 05:55:22;;;;;;;2.50;2.40;;;19.50;38.30;;;;;;5071137;28;20445;-65
2023/12/02 05:57:48;;;;;;;2.50;2.40;;;19.50;38.30;;;;;;5071098;28;20232;-65
2023/12/02 06:00:17;;;;;;;2.20;2.10;;;19.50;38.30;;;;;;5070612;28;20228;-65
2023/12/02 06:02:42;;;;;;;2.30;2.20;;;19.60;38.40;;;;;;5046205;28;20229;-64
2023/12/02 06:05:08;;;;;;;2.60;2.40;;;19.50;38.20;;;;;;5065358;28;20493;-65
2023/12/02 06:07:34;;;;;;;2.60;2.50;;;19.60;38.30;;;;;;5063098;28;20225;-65
2023/12/02 06:09:59;;;;;;;2.27;2.17;;;19.60;38.30;;;;;;5063848;28;20225;-65
2023/12/02 06:12:25;;;;;;;2.63;2.50;;;19.60;38.30;;;;;;5063250;28;20705;-65
2023/12/02 06:14:51;;;;;;;2.33;2.23;;;19.50;38.20;;;;;;5061938;28;21597;-65
2023/12/02 06:17:16;;;;;;;2.37;2.27;;;19.50;38.20;;;;;;5068480;28;20225;-64
2023/12/02 06:19:42;;;;;;;2.47;2.37;;;19.50;38.20;;;;;;5059440;28;20229;-64
2023/12/02 06:22:07;;;;;;;2.57;2.47;;;19.60;38.30;;;;;;5075579;28;20221;-65
2023/12/02 06:24:33;;;;;;;2.73;2.63;;;19.50;38.20;;;;;;5076201;28;20288;-64
2023/12/02 06:26:59;;;;;;;2.23;2.13;;;19.50;38.20;;;;;;5070564;28;20220;-64
2023/12/02 06:29:24;;;;;;;2.40;2.30;;;19.50;38.20;;;;;;5076239;28;20225;-64
2023/12/02 06:31:50;;;;;;;2.27;2.17;;;19.50;38.20;;;;;;5076328;28;20222;-64
2023/12/02 06:34:17;;;;;;;2.07;1.97;;;19.60;38.30;;;;;;5078812;28;20237;-64
2023/12/02 06:36:44;;;;;;;2.50;2.40;;;19.50;38.20;;;;;;5060892;28;20702;-64
2023/12/02 06:39:12;;;;;;;2.37;2.27;;;19.50;38.20;;;;;;5062437;28;20607;-63
2023/12/02 06:41:38;;;;;;;2.20;2.10;;;19.50;38.10;;;;;;5070830;28;20461;-64
2023/12/02 06:44:04;;;;;;;2.47;2.37;;;19.50;38.20;;;;;;5078854;28;20489;-65
2023/12/02 06:46:30;;;;;;;2.33;2.23;;;19.50;38.10;;;;;;5058513;28;20551;-64
2023/12/02 06:48:56;;;;;;;2.87;2.67;;;19.60;38.20;;;;;;5064444;28;20521;-66
2023/12/02 06:51:23;;;;;;;2.33;2.23;;;19.60;38.10;;;;;;5050368;28;20228;-63
2023/12/02 06:53:49;;;;;;;2.40;2.30;;;19.60;38.30;;;;;;5062417;28;20573;-64
2023/12/02 06:56:21;;;;;;;2.37;2.27;;;19.50;38.10;;;;;;5056623;28;21438;-64
2023/12/02 06:58:47;;;;;;;2.20;2.10;;;19.60;38.10;;;;;;5067096;28;20221;-64
2023/12/02 07:01:33;;;;;;;2.73;2.57;;;19.50;38.80;;;;;;5064068;28;20483;-64
2023/12/02 07:04:00;;;;;;;2.70;2.60;;;19.50;38.00;;;;;;5064042;28;20487;-64
2023/12/02 07:06:27;;;;;;;2.30;2.20;;;19.50;38.00;;;;;;5070975;28;20424;-64
2023/12/02 07:08:53;;;;;;;2.20;2.10;;;19.50;38.00;;;;;;5053475;28;20733;-64
2023/12/02 07:11:19;;;;;;;2.73;2.63;;;19.60;38.10;;;;;;5057981;28;20505;-64
2023/12/02 07:13:45;;;;;;;2.37;2.27;;;19.50;38.00;;;;;;5071399;28;20927;-64
2023/12/02 07:16:11;;;;;;;2.97;2.70;;;19.60;38.10;;;;;;5038727;28;20632;-64
2023/12/02 07:18:37;;;;;;;2.63;2.53;;;19.60;38.10;;;;;;5061745;28;20421;-65
2023/12/02 07:21:03;;;;;;;2.20;2.10;;;19.60;38.00;;;;;;5059135;28;20421;-75
2023/12/02 07:23:29;;;;;;;2.33;2.23;;;19.50;37.90;;;;;;5074541;28;20447;-72
2023/12/02 07:25:55;;;;;;;2.53;2.43;;;19.60;38.00;;;;;;5056086;28;20439;-67
2023/12/02 07:28:22;;;;;;;2.37;2.27;;;19.50;37.90;;;;;;5044327;28;20291;-69
2023/12/02 07:30:51;;;;;;;2.40;2.30;;;19.60;38.00;;;;;;5049148;28;21035;-68
2023/12/02 07:33:18;;;;;;;3.23;3.00;;;19.60;38.00;;;;;;5061774;28;20545;-67
2023/12/02 07:35:44;;;;;;;2.50;2.40;;;19.60;37.90;;;;;;5053257;28;20428;-69
2023/12/02 07:38:10;;;;;;;2.70;2.50;;;19.60;37.90;;;;;;5068134;28;20469;-69
2023/12/02 07:40:36;;;;;;;2.20;2.10;;;19.50;37.80;;;;;;5069912;28;20811;-67
2023/12/02 07:43:02;;;;;;;2.10;2.00;;;19.60;38.00;;;;;;5076220;28;20273;-70
2023/12/02 07:45:28;;;;;;;2.93;2.70;;;19.60;37.90;;;;;;5079919;28;20193;-71
2023/12/02 07:47:54;;;;;;;3.00;2.57;;;19.50;37.70;;;;;;5076023;28;20406;-72
2023/12/02 07:50:20;;;;;;;2.63;2.47;;;19.60;37.70;;;;;;5062572;28;20502;-69
2023/12/02 07:52:46;;;;;;;2.90;2.70;;;19.60;37.70;;;;;;5056570;28;20351;-69
2023/12/02 07:55:12;;;;;;;2.80;2.60;;;19.60;37.60;;;;;;5040277;28;20700;-67
2023/12/02 07:57:38;;;;;;;3.10;2.90;;;19.60;37.50;;;;;;5054486;28;20188;-67
2023/12/02 08:00:04;;;;;;;2.60;2.50;;;19.60;37.40;;;;;;5033858;28;20439;-68
2023/12/02 08:02:30;;;;;;;2.80;2.60;;;19.60;37.30;;;;;;5060657;28;20497;-68
2023/12/02 16:08:16;;;;;;;5.00;2.27;;;19.70;35.80;;;;;;5059383;28;20529;-74
2023/12/02 16:10:42;;;;;;;2.90;2.23;;;19.70;35.90;;;;;;5055773;28;20951;-75
2023/12/02 16:13:09;;;;;;;3.47;2.40;;;19.70;35.80;;;;;;5061147;28;20435;-75
2023/12/02 16:15:35;;;;;;;6.30;2.30;;;19.70;35.80;;;;;;5056661;28;20683;-73
2023/12/02 16:18:03;;;;;;;6.33;4.00;;;19.70;35.80;;;;;;5041277;28;20911;-76
2023/12/02 16:20:30;;;;;;;2.50;2.30;;;19.70;35.80;;;;;;5051624;28;20445;-72
2023/12/02 16:22:57;;;;;;;2.90;2.70;;;19.70;35.80;;;;;;5065696;28;20936;-73
2023/12/02 16:25:23;;;;;;;5.93;2.67;;;19.70;35.70;;;;;;5069075;28;20521;-71
2023/12/02 16:27:49;;;;;;;3.77;2.63;;;19.70;35.70;;;;;;5040576;28;20449;-68
2023/12/02 16:30:16;;;;;;;3.30;2.33;;;19.70;35.70;;;;;;5070208;28;21018;-69
2023/12/02 16:32:42;;;;;;;2.50;2.30;;;19.80;35.90;;;;;;5066371;28;20603;-68
2023/12/02 16:35:08;;;;;;;2.30;2.10;;;19.80;35.80;;;;;;5072834;28;20558;-64
2023/12/02 16:37:36;;;;;;;3.30;2.60;;;19.80;35.80;;;;;;5071043;28;20221;-64
2023/12/02 16:40:02;;;;;;;3.30;2.40;;;19.80;35.80;;;;;;5074008;28;20461;-67
2023/12/02 16:42:28;;;;;;;3.20;2.60;;;19.80;35.90;;;;;;5061329;28;20961;-65
2023/12/02 16:44:55;;;;;;;3.50;2.23;;;19.80;35.90;;;;;;5069437;28;20468;-63
2023/12/02 16:47:50;;;;;;;2.43;2.23;;;19.80;35.90;;;;;;5068551;28;20299;-68
2023/12/02 16:50:23;;;;;;;3.30;2.77;;;19.70;35.80;;;;;;5065255;28;20457;-66
2023/12/02 16:52:53;;;;;;;2.87;2.67;;;19.80;35.90;;;;;;5068128;28;20465;-68
2023/12/02 16:55:21;;;;;;;3.00;2.70;;;19.70;35.80;;;;;;5070811;28;20432;-66
2023/12/02 16:57:48;;;;;;;3.70;3.00;;;19.70;35.90;;;;;;5069268;28;20467;-66
2023/12/02 17:00:19;;;;;;;4.03;2.77;;;19.70;35.90;;;;;;5062002;28;20886;-66
2023/12/02 17:02:45;;;;;;;2.73;2.53;;;19.70;35.80;;;;;;5064273;28;20586;-67
2023/12/02 17:05:26;;;;;;;3.77;2.50;;;19.70;36.00;;;;;;5070745;28;20428;-67
2023/12/02 17:07:59;;;;;;;2.43;2.23;;;19.70;35.90;;;;;;5054638;28;20478;-64
2023/12/02 17:10:44;;;;;;;4.10;2.60;;;19.70;35.90;;;;;;5043731;28;20459;-64
2023/12/02 17:13:25;;;;;;;3.20;3.00;;;19.70;35.90;;;;;;5048784;28;21042;-68
2023/12/02 17:15:52;;;;;;;3.07;2.87;;;19.70;35.90;;;;;;5042016;28;20458;-68
2023/12/02 17:18:35;;;;;;;3.53;2.40;;;19.70;35.90;;;;;;5056032;28;20433;-67
2023/12/02 17:21:01;;;;;;;3.50;3.20;;;19.70;35.90;;;;;;5050373;28;20461;-68
2023/12/02 17:23:29;;;;;;;2.90;2.70;;;19.70;35.90;;;;;;5054078;28;20485;-67
2023/12/02 17:26:00;;;;;;;3.23;2.80;;;19.70;35.90;;;;;;5054067;28;20709;-64
2023/12/02 17:28:25;;;;;;;3.30;3.10;;;19.70;35.80;;;;;;5057148;28;20464;-66
2023/12/02 17:30:51;;;;;;;2.60;2.40;;;19.70;35.80;;;;;;5056262;28;20996;-66
2023/12/02 17:33:17;;;;;;;3.00;2.70;;;19.70;35.80;;;;;;5055316;28;20613;-68
2023/12/02 17:35:43;;;;;;;2.97;2.77;;;19.70;35.80;;;;;;5054612;28;20709;-68
2023/12/02 17:38:09;;;;;;;3.40;3.20;;;19.70;35.80;;;;;;5057834;28;20560;-68
2023/12/02 17:40:34;;;;;;;3.30;2.70;;;19.70;35.80;;;;;;5054734;28;20636;-67
2023/12/02 17:43:00;;;;;;;2.60;2.43;;;19.70;35.80;;;;;;5053732;28;20602;-68
2023/12/02 17:45:26;;;;;;;4.27;2.50;;;19.70;35.70;;;;;;5054902;28;20493;-67
2023/12/02 17:47:51;;;;;;;3.30;3.10;;;19.70;35.70;;;;;;5055633;28;20708;-67
2023/12/02 17:50:17;;;;;;;3.40;2.90;;;19.70;35.70;;;;;;5055532;28;20213;-68
2023/12/02 17:52:45;;;;;;;3.27;3.07;;;19.70;35.70;;;;;;5055068;28;20225;-69
2023/12/02 17:55:12;;;;;;;3.50;3.07;;;19.70;35.70;;;;;;5057570;28;20229;-68
2023/12/02 17:57:37;;;;;;;3.77;3.40;;;19.70;35.70;;;;;;5056768;28;20432;-67
2023/12/02 18:00:05;;;;;;;4.30;3.30;;;19.70;35.70;;;;;;5056523;28;21379;-69
2023/12/02 18:02:31;;;;;;;3.40;3.20;;;19.70;35.70;;;;;;5043690;28;20214;-67
2023/12/02 18:04:57;;;;;;;4.27;3.87;;;19.70;35.60;;;;;;5050298;28;20447;-68
2023/12/02 18:07:24;;;;;;;4.53;3.63;;;19.70;35.60;;;;;;5060744;28;20975;-68
2023/12/02 18:09:50;;;;;;;4.47;4.13;;;19.70;35.70;;;;;;5074864;28;20220;-68
2023/12/02 18:12:16;;;;;;;3.53;3.27;;;19.70;35.60;;;;;;5071726;28;20573;-67
2023/12/02 18:14:42;;;;;;;4.30;4.00;;;19.70;35.70;;;;;;5075148;28;20231;-68
2023/12/02 18:17:07;;;;;;;4.40;4.00;;;19.70;35.60;;;;;;5071423;28;20497;-68
2023/12/02 18:19:33;;;;;;;4.03;3.73;;;19.70;35.60;;;;;;5072705;28;20564;-66
2023/12/02 18:22:03;;;;;;;4.87;4.20;;;19.70;35.60;;;;;;5075045;28;20582;-67
2023/12/02 18:24:29;;;;;;;5.60;5.00;;;19.70;35.60;;;;;;5067275;28;20249;-68
2023/12/02 18:26:54;;;;;;;4.83;4.30;;;19.70;35.60;;;;;;5048590;28;20814;-65
2023/12/02 18:29:20;;;;;;;5.07;4.67;;;19.70;35.60;;;;;;5075610;28;20223;-67
2023/12/02 18:31:46;;;;;;;6.57;5.87;;;19.70;35.60;;;;;;5064689;28;20304;-66
2023/12/02 18:34:11;;;;;;;5.50;4.90;;;19.70;35.60;;;;;;5073171;28;20218;-68
2023/12/02 18:36:37;;;;;;;4.73;4.27;;;19.70;35.60;;;;;;5067753;28;20497;-68
2023/12/02 18:39:03;;;;;;;5.70;5.20;;;19.70;35.60;;;;;;5061516;28;20258;-69
2023/12/02 18:41:29;;;;;;;4.83;4.43;;;19.70;35.60;;;;;;5075180;28;20212;-68
2023/12/02 18:43:54;;;;;;;6.50;5.47;;;19.70;35.60;;;;;;5062640;28;20463;-74
2023/12/02 18:46:20;;;;;;;4.77;4.37;;;19.70;35.60;;;;;;5053604;28;20654;-70
2023/12/02 18:48:45;;;;;;;5.47;4.97;;;19.70;35.60;;;;;;5072946;28;20302;-70
2023/12/02 18:51:11;;;;;;;8.17;6.10;;;19.70;35.60;;;;;;5042728;28;20267;-74
2023/12/02 18:53:37;;;;;;;7.23;5.33;;;19.70;35.60;;;;;;5074450;28;20663;-71
2023/12/02 18:56:03;;;;;;;8.23;5.10;;;19.70;35.60;;;;;;5063855;28;20244;-73
2023/12/02 18:58:28;;;;;;;6.00;5.43;;;19.70;35.60;;;;;;5064305;28;20229;-79
2023/12/02 19:00:54;;;;;;;7.67;6.63;;;19.70;35.50;;;;;;5055813;28;20304;-68
2023/12/02 19:03:19;;;;;;;7.13;5.43;;;19.70;35.50;;;;;;5054451;28;20275;-68
2023/12/02 19:05:45;;;;;;;5.20;4.80;;;19.70;35.50;;;;;;5066121;28;20592;-65
2023/12/02 19:08:10;;;;;;;6.87;6.17;;;19.70;35.50;;;;;;5047450;28;20287;-69
2023/12/02 19:10:38;;;;;;;5.97;5.43;;;19.70;35.50;;;;;;5076890;28;20220;-68
2023/12/02 19:13:04;;;;;;;6.03;5.53;;;19.70;35.50;;;;;;5050630;28;20228;-64
2023/12/02 19:15:29;;;;;;;8.30;6.03;;;19.80;35.50;;;;;;5067920;28;20495;-65
2023/12/02 19:17:55;;;;;;;6.90;6.20;;;19.70;35.40;;;;;;5062141;28;20515;-67
2023/12/02 19:20:20;;;;;;;10.30;6.10;;;19.70;35.50;;;;;;5057358;28;20252;-68
2023/12/02 19:22:46;;;;;;;8.83;6.60;;;19.70;35.50;;;;;;5066436;28;20244;-69
2023/12/02 19:25:12;;;;;;;6.87;6.17;;;19.70;35.50;;;;;;5062852;28;20263;-68
2023/12/02 19:27:37;;;;;;;6.00;5.43;;;19.70;35.50;;;;;;5057061;28;20217;-66
2023/12/02 19:30:03;;;;;;;8.00;5.77;;;19.70;35.50;;;;;;5066005;28;20400;-66
2023/12/02 19:32:29;;;;;;;7.60;6.40;;;19.70;35.50;;;;;;5057082;28;20281;-66
2023/12/02 19:34:54;;;;;;;9.23;6.70;;;19.70;35.50;;;;;;5052299;28;20225;-68
2023/12/02 19:37:20;;;;;;;7.53;6.83;;;19.70;35.50;;;;;;5067504;28;21454;-68
2023/12/02 19:39:45;;;;;;;7.63;6.87;;;19.70;35.50;;;;;;5069831;28;20216;-66
2023/12/02 19:42:11;;;;;;;7.03;6.33;;;19.70;35.50;;;;;;5050580;28;20220;-68
2023/12/02 19:44:37;;;;;;;8.93;6.60;;;19.70;35.50;;;;;;5073473;28;20244;-67
2023/12/02 19:47:04;;;;;;;6.80;6.20;;;19.70;35.50;;;;;;5045583;28;20760;-67
2023/12/02 19:49:30;;;;;;;7.57;6.77;;;19.70;35.50;;;;;;5048391;28;20221;-68
2023/12/02 19:51:56;;;;;;;7.67;6.87;;;19.70;35.60;;;;;;5061986;28;20769;-67
2023/12/02 19:54:22;;;;;;;7.80;7.07;;;19.70;35.60;;;;;;5063459;28;20441;-68
2023/12/02 19:56:49;;;;;;;7.63;6.60;;;19.70;35.60;;;;;;5052708;28;20624;-69
2023/12/02 19:59:17;;;;;;;7.63;6.80;;;19.70;35.60;;;;;;5068632;28;20526;-66
2023/12/02 20:01:42;;;;;;;7.10;6.50;;;19.70;35.60;;;;;;5070416;28;20457;-66
2023/12/02 20:04:08;;;;;;;8.33;6.37;;;19.70;35.60;;;;;;5072774;28;20805;-68
2023/12/02 20:06:33;;;;;;;8.07;6.67;;;19.70;35.60;;;;;;5069711;28;20566;-68
2023/12/02 20:08:59;;;;;;;7.87;6.73;;;19.60;35.60;;;;;;5045284;28;20653;-68
2023/12/02 20:11:25;;;;;;;9.47;7.13;;;19.70;35.60;;;;;;5054195;28;20233;-68
2023/12/02 20:13:51;;;;;;;6.77;6.17;;;19.60;35.60;;;;;;5055118;28;20452;-67
2023/12/02 20:16:16;;;;;;;7.33;6.23;;;19.60;35.60;;;;;;5055268;28;20944;-68
2023/12/02 20:18:42;;;;;;;8.73;7.13;;;19.60;35.70;;;;;;5054422;28;20213;-67
2023/12/02 20:21:08;;;;;;;7.23;6.50;;;19.70;35.70;;;;;;5052842;28;20380;-64
2023/12/02 20:23:33;;;;;;;7.30;6.57;;;19.60;35.60;;;;;;5048621;28;20237;-67
2023/12/02 20:26:00;;;;;;;7.67;7.00;;;19.60;35.70;;;;;;5055441;28;20708;-69
2023/12/02 20:28:25;;;;;;;8.03;5.87;;;19.60;35.70;;;;;;5050375;28;20225;-66
2023/12/02 20:30:53;;;;;;;8.40;7.23;;;19.60;35.70;;;;;;5053954;28;20432;-66
2023/12/02 20:33:18;;;;;;;7.60;6.77;;;19.60;35.70;;;;;;5054292;28;20225;-68
2023/12/02 20:35:44;;;;;;;9.07;7.10;;;19.60;35.70;;;;;;5054041;28;20800;-69
2023/12/02 20:38:09;;;;;;;7.63;6.40;;;19.60;35.70;;;;;;5049948;28;20236;-67
2023/12/02 20:40:35;;;;;;;8.27;6.97;;;19.60;35.70;;;;;;5050660;28;20217;-67
2023/12/02 20:43:00;;;;;;;9.40;8.10;;;19.60;35.70;;;;;;5055226;28;20724;-67
2023/12/02 20:45:26;;;;;;;6.83;6.13;;;19.60;35.70;;;;;;5056005;28;20287;-69